Time;durP1;ratioP1;P1;durP2;ratioP2;P2;SDS_P1;SDS_P2;PMS_P1;PMS_P2;Temp;Humidity;BMP_temperature;BMP_pressure;BME280_temperature;BME280_humidity;BME280_pressure;Samples;Min_cycle;Max_cycle;Signal;HPM_P1;HPM_P2
2022/02/14 00:00:16;;;;;;;1999.90;999.90;;;;;;;0.93;49.96;100399.91;4964862;28;98703;-70
2022/02/14 00:02:44;;;;;;;1999.90;999.90;;;;;;;0.90;50.23;100397.16;4957864;28;96891;-71
2022/02/14 00:05:13;;;;;;;1999.90;999.90;;;;;;;0.88;50.25;100393.53;4960152;28;97682;-71
2022/02/14 00:07:41;;;;;;;1999.90;999.90;;;;;;;0.86;50.35;100389.03;4959372;28;97536;-71
2022/02/14 00:10:11;;;;;;;1999.90;999.90;;;;;;;0.84;50.73;100390.66;4963381;28;97079;-71
2022/02/14 00:12:41;;;;;;;1999.90;999.90;;;;;;;0.81;50.18;100380.03;4967052;28;96658;-72
2022/02/14 00:15:10;;;;;;;1999.90;999.90;;;;;;;0.78;50.11;100380.75;4964304;28;99388;-71
2022/02/14 00:17:38;;;;;;;1999.90;999.90;;;;;;;0.77;50.67;100375.44;4982181;28;97732;-71
2022/02/14 00:20:07;;;;;;;1999.90;999.90;;;;;;;0.76;50.89;100371.00;4965083;28;96856;-71
2022/02/14 00:22:37;;;;;;;1999.90;999.90;;;;;;;0.74;50.20;100370.94;4961934;28;97388;-72
2022/02/14 00:25:06;;;;;;;1999.90;999.90;;;;;;;0.75;50.57;100371.84;4962018;28;97844;-72
2022/02/14 00:27:34;;;;;;;1999.90;999.90;;;;;;;0.71;50.49;100367.25;4959990;28;98663;-71
2022/02/14 00:30:01;;;;;;;1999.90;999.90;;;;;;;0.70;50.91;100368.09;4960797;28;96959;-71
2022/02/14 00:32:29;;;;;;;1999.90;999.90;;;;;;;0.70;50.30;100368.09;4962400;28;97119;-71
2022/02/14 00:34:56;;;;;;;1999.90;999.90;;;;;;;0.67;50.39;100360.97;4955807;28;97715;-71
2022/02/14 00:37:26;;;;;;;1999.90;999.90;;;;;;;0.65;50.63;100362.59;4965568;28;97679;-71
2022/02/14 00:39:55;;;;;;;1999.90;999.90;;;;;;;0.63;50.71;100355.50;4963125;28;96639;-71
2022/02/14 00:42:23;;;;;;;1999.90;999.90;;;;;;;0.63;51.08;100361.59;4967985;28;96946;-71
2022/02/14 00:44:51;;;;;;;1999.90;999.90;;;;;;;0.64;51.06;100352.03;4963760;28;98813;-72
2022/02/14 00:47:21;;;;;;;1999.90;999.90;;;;;;;0.63;51.10;100358.09;4963017;28;98856;-72
2022/02/14 00:49:50;;;;;;;1999.90;999.90;;;;;;;0.62;50.38;100351.06;4958213;28;97855;-71
2022/02/14 00:52:18;;;;;;;1999.90;999.90;;;;;;;0.60;50.76;100344.84;4966265;28;97611;-71
2022/02/14 00:54:46;;;;;;;1999.90;999.90;;;;;;;0.59;51.18;100346.56;4960258;28;98505;-72
2022/02/14 00:57:15;;;;;;;1999.90;999.90;;;;;;;0.57;50.83;100340.34;4958953;28;98749;-71
2022/02/14 00:59:43;;;;;;;1999.90;999.90;;;;;;;0.59;51.06;100343.06;4959470;28;96829;-71
2022/02/14 01:02:12;;;;;;;1999.90;999.90;;;;;;;0.61;50.62;100333.56;4960602;28;97141;-71
2022/02/14 01:04:39;;;;;;;1999.90;999.90;;;;;;;0.58;51.06;100342.13;4955650;28;96894;-71
2022/02/14 01:07:07;;;;;;;1999.90;999.90;;;;;;;0.57;51.27;100334.22;4960117;28;96803;-70
2022/02/14 01:09:35;;;;;;;1999.90;999.90;;;;;;;0.56;51.11;100335.91;4958309;28;96678;-71
2022/02/14 01:12:04;;;;;;;1999.90;999.90;;;;;;;0.58;50.95;100336.00;4961574;28;101662;-71
2022/02/14 01:14:33;;;;;;;1999.90;999.90;;;;;;;0.58;51.34;100331.66;4962321;28;98719;-71
2022/02/14 01:17:00;;;;;;;1999.90;999.90;;;;;;;0.57;51.23;100331.59;4962715;28;97949;-71
2022/02/14 01:19:28;;;;;;;1999.90;999.90;;;;;;;0.57;50.47;100326.34;4980242;22;97050;-67
2022/02/14 01:21:55;;;;;;;1999.90;999.90;;;;;;;0.56;51.16;100325.44;4979889;28;98074;-71
2022/02/14 01:24:23;;;;;;;1999.90;999.90;;;;;;;0.56;51.19;100311.47;4978463;28;99075;-70
2022/02/14 01:26:52;;;;;;;1999.90;999.90;;;;;;;0.57;50.86;100313.28;4977970;28;97528;-69
2022/02/14 01:29:20;;;;;;;1999.90;999.90;;;;;;;0.56;50.97;100307.13;4975244;28;98125;-70
2022/02/14 01:31:49;;;;;;;1999.90;999.90;;;;;;;0.56;50.97;100304.50;4974517;28;97421;-70
2022/02/14 01:34:17;;;;;;;1999.90;999.90;;;;;;;0.56;50.79;100293.16;4963959;28;99287;-70
2022/02/14 01:36:45;;;;;;;1999.90;999.90;;;;;;;0.56;50.92;100298.41;4984741;28;97517;-70
2022/02/14 01:39:13;;;;;;;1999.90;999.90;;;;;;;0.53;50.85;100295.59;4983884;28;96775;-70
2022/02/14 01:41:40;;;;;;;1999.90;999.90;;;;;;;0.52;51.06;100280.72;4986589;28;98089;-70
2022/02/14 01:44:10;;;;;;;1999.90;999.90;;;;;;;0.51;50.97;100287.66;4984210;28;97320;-70
2022/02/14 01:46:38;;;;;;;1999.90;999.90;;;;;;;0.51;50.94;100284.13;4983604;28;97797;-72
2022/02/14 01:49:08;;;;;;;1999.90;999.90;;;;;;;0.50;50.88;100284.97;4979354;28;96877;-72
2022/02/14 01:51:36;;;;;;;1999.90;999.90;;;;;;;0.48;50.97;100281.38;4978844;28;96893;-70
2022/02/14 01:54:05;;;;;;;1999.90;999.90;;;;;;;0.48;51.36;100279.66;4985124;28;98929;-70
2022/02/14 01:56:33;;;;;;;1999.90;999.90;;;;;;;0.45;51.16;100269.00;4996746;28;99703;-71
2022/02/14 01:59:02;;;;;;;1999.90;999.90;;;;;;;0.44;51.13;100262.00;4981958;28;96703;-68
2022/02/14 02:01:30;;;;;;;1999.90;999.90;;;;;;;0.42;51.05;100261.00;4978578;28;97534;-69
2022/02/14 02:03:58;;;;;;;1999.90;999.90;;;;;;;0.43;51.50;100259.31;4978748;28;97716;-71
2022/02/14 02:06:27;;;;;;;1999.90;999.90;;;;;;;0.42;51.46;100253.16;4978380;28;97844;-72
2022/02/14 02:08:55;;;;;;;1999.90;999.90;;;;;;;0.43;51.36;100241.84;4981012;28;96781;-71
2022/02/14 02:14:07;;;;;;;1999.90;999.90;;;;;;;0.38;51.41;100234.56;4983339;28;98690;-72
2022/02/14 02:16:35;;;;;;;1999.90;999.90;;;;;;;0.38;51.22;100242.44;4986148;28;96920;-73
2022/02/14 02:19:03;;;;;;;1999.90;999.90;;;;;;;0.37;51.36;100233.69;4988150;28;97363;-72
2022/02/14 02:21:32;;;;;;;1999.90;999.90;;;;;;;0.38;51.33;100224.13;4978615;28;97439;-72
2022/02/14 02:24:00;;;;;;;1999.90;999.90;;;;;;;0.38;50.93;100221.50;4979775;28;97870;-73
2022/02/14 02:26:32;;;;;;;1999.90;999.90;;;;;;;0.38;51.41;100224.13;4966759;28;99097;-73
2022/02/14 02:28:59;;;;;;;1999.90;999.90;;;;;;;0.39;51.26;100223.31;4980381;28;96864;-72
2022/02/14 02:31:27;;;;;;;1999.90;999.90;;;;;;;0.38;51.46;100218.88;4978168;28;97431;-71
2022/02/14 02:33:55;;;;;;;1999.90;999.90;;;;;;;0.37;51.49;100214.47;4974727;28;97614;-71
2022/02/14 02:36:23;;;;;;;1999.90;999.90;;;;;;;0.36;51.33;100205.72;4982154;28;99181;-71
2022/02/14 02:38:51;;;;;;;1999.90;999.90;;;;;;;0.35;51.42;100210.88;4984454;28;96799;-71
2022/02/14 02:41:18;;;;;;;1999.90;999.90;;;;;;;0.32;51.42;100202.88;4987698;28;96753;-70
2022/02/14 02:43:48;;;;;;;1999.90;999.90;;;;;;;0.31;51.47;100206.31;4967075;28;98446;-72
2022/02/14 02:46:15;;;;;;;1999.90;999.90;;;;;;;0.31;51.13;100201.06;4976732;28;97833;-70
2022/02/14 02:48:43;;;;;;;1999.90;999.90;;;;;;;0.30;51.20;100194.97;4979074;28;97938;-67
2022/02/14 02:51:11;;;;;;;1999.90;999.90;;;;;;;0.28;50.96;100193.97;4960650;28;97314;-70
2022/02/14 02:53:39;;;;;;;1999.90;999.90;;;;;;;0.28;51.19;100188.75;4981656;28;97797;-71
2022/02/14 02:56:06;;;;;;;1999.90;999.90;;;;;;;0.29;50.96;100185.28;4986570;28;97657;-70
2022/02/14 02:58:34;;;;;;;1999.90;999.90;;;;;;;0.31;50.95;100175.81;4981763;28;96979;-71
2022/02/14 03:01:03;;;;;;;1999.90;999.90;;;;;;;0.31;50.88;100182.75;4981038;28;96870;-71
2022/02/14 03:03:31;;;;;;;1999.90;999.90;;;;;;;0.32;51.21;100181.94;4996219;28;100121;-70
2022/02/14 03:05:59;;;;;;;1999.90;999.90;;;;;;;0.33;51.27;100186.34;4977719;28;99749;-67
2022/02/14 03:08:26;;;;;;;1999.90;999.90;;;;;;;0.36;51.00;100197.88;4984129;28;96953;-71
2022/02/14 03:10:54;;;;;;;1999.90;999.90;;;;;;;0.36;51.20;100191.75;4981999;28;96812;-70
2022/02/14 03:13:22;;;;;;;1999.90;999.90;;;;;;;0.35;51.00;100177.78;4977825;28;97447;-68
2022/02/14 03:15:50;;;;;;;1999.90;999.90;;;;;;;0.35;51.03;100171.63;4983379;28;96928;-70
2022/02/14 03:18:19;;;;;;;1999.90;999.90;;;;;;;0.36;50.67;100169.09;4979679;28;96817;-70
2022/02/14 03:20:46;;;;;;;1999.90;999.90;;;;;;;0.35;50.43;100161.16;4982856;28;97024;-69
2022/02/14 03:23:14;;;;;;;1999.90;999.90;;;;;;;0.32;50.99;100163.63;4983390;28;98730;-70
2022/02/14 03:25:42;;;;;;;1999.90;999.90;;;;;;;0.30;50.58;100165.28;4985250;28;98694;-70
2022/02/14 03:28:10;;;;;;;1999.90;999.90;;;;;;;0.29;50.98;100168.69;4981085;28;97084;-71
2022/02/14 03:30:39;;;;;;;1999.90;999.90;;;;;;;0.29;50.89;100160.84;4985080;28;97556;-71
2022/02/14 03:33:07;;;;;;;1999.90;999.90;;;;;;;0.29;50.77;100161.75;4984074;28;98815;-70
2022/02/14 03:35:36;;;;;;;1999.90;999.90;;;;;;;0.31;50.91;100159.19;4974201;28;100427;-70
2022/02/14 03:38:06;;;;;;;1999.90;999.90;;;;;;;0.31;50.70;100148.75;4980923;28;97812;-70
2022/02/14 03:40:34;;;;;;;1999.90;999.90;;;;;;;0.33;50.83;100152.34;4981417;28;96894;-70
2022/02/14 03:43:02;;;;;;;1999.90;999.90;;;;;;;0.33;50.40;100154.94;4976039;28;97817;-70
2022/02/14 03:45:30;;;;;;;1999.90;999.90;;;;;;;0.32;50.42;100145.31;4979281;28;101025;-70
2022/02/14 03:47:58;;;;;;;1999.90;999.90;;;;;;;0.31;50.28;100144.41;4980392;28;97017;-72
2022/02/14 03:50:25;;;;;;;1999.90;999.90;;;;;;;0.29;50.66;100140.81;4982772;28;97750;-71
2022/02/14 03:52:55;;;;;;;1999.90;999.90;;;;;;;0.30;50.65;100146.97;4979122;28;99812;-71
2022/02/14 03:55:22;;;;;;;1999.90;999.90;;;;;;;0.30;50.79;100136.50;4983558;28;99558;-70
2022/02/14 03:57:50;;;;;;;1999.90;999.90;;;;;;;0.31;50.23;100127.81;4982214;28;100162;-72
2022/02/14 04:00:19;;;;;;;1999.90;999.90;;;;;;;0.32;50.42;100127.00;4975023;28;96836;-71
2022/02/14 04:02:47;;;;;;;1999.90;999.90;;;;;;;0.29;50.77;100124.22;4983542;28;98878;-70
2022/02/14 04:05:16;;;;;;;1999.90;999.90;;;;;;;0.27;50.44;100126.75;4986461;28;97895;-70
2022/02/14 04:07:44;;;;;;;1999.90;999.90;;;;;;;0.27;50.27;100118.00;4985691;28;97804;-71
2022/02/14 04:10:15;;;;;;;1999.90;999.90;;;;;;;0.23;50.60;100120.44;4982372;28;97244;-70
2022/02/14 04:12:43;;;;;;;1999.90;999.90;;;;;;;0.21;50.47;100113.34;4977849;28;98829;-71
2022/02/14 04:15:11;;;;;;;1999.90;999.90;;;;;;;0.21;50.62;100115.97;4984172;28;97618;-71
2022/02/14 04:17:39;;;;;;;1999.90;999.90;;;;;;;0.23;50.52;100105.56;4959178;28;98247;-71
2022/02/14 04:20:08;;;;;;;1999.90;999.90;;;;;;;0.23;50.56;100109.97;4984060;28;96932;-71
2022/02/14 04:22:37;;;;;;;1999.90;999.90;;;;;;;0.23;50.55;100111.69;4982236;28;100400;-70
2022/02/14 04:25:05;;;;;;;1999.90;999.90;;;;;;;0.20;50.51;100115.06;4975144;28;99548;-70
2022/02/14 04:27:34;;;;;;;1999.90;999.90;;;;;;;0.20;50.46;100109.81;4980713;28;96759;-69
2022/02/14 04:30:02;;;;;;;1999.90;999.90;;;;;;;0.21;50.53;100115.97;4982579;28;97378;-70
2022/02/14 04:32:31;;;;;;;1999.90;999.90;;;;;;;0.20;50.32;100119.38;4977090;28;97473;-71
2022/02/14 04:34:59;;;;;;;1999.90;999.90;;;;;;;0.19;50.55;100114.97;4977097;28;98009;-72
2022/02/14 04:37:27;;;;;;;1999.90;999.90;;;;;;;0.16;50.62;100107.88;4964444;28;97230;-72
2022/02/14 04:39:55;;;;;;;1999.90;999.90;;;;;;;0.18;50.64;100103.59;4984782;28;97325;-71
2022/02/14 04:42:22;;;;;;;1999.90;999.90;;;;;;;0.18;50.42;100105.31;4982634;28;98969;-72
2022/02/14 04:44:51;;;;;;;1999.90;999.90;;;;;;;0.16;50.38;100101.72;4981306;28;100002;-71
2022/02/14 04:47:19;;;;;;;1999.90;999.90;;;;;;;0.14;50.56;100093.81;4979029;28;97060;-71
2022/02/14 04:49:47;;;;;;;1999.90;999.90;;;;;;;0.10;50.31;100088.34;4964009;28;97932;-70
2022/02/14 04:52:15;;;;;;;1999.90;999.90;;;;;;;0.07;50.54;100090.78;4978605;28;98000;-71
2022/02/14 04:54:44;;;;;;;1999.90;999.90;;;;;;;0.06;50.21;100105.56;4981538;28;98896;-71
2022/02/14 04:57:11;;;;;;;1999.90;999.90;;;;;;;0.03;50.98;100100.19;4977265;28;97219;-71
2022/02/14 04:59:39;;;;;;;1999.90;999.90;;;;;;;0.05;50.64;100097.66;4978131;28;96810;-72
2022/02/14 05:02:08;;;;;;;1999.90;999.90;;;;;;;0.06;50.81;100100.34;4977958;28;97543;-71
2022/02/14 05:04:36;;;;;;;1999.90;999.90;;;;;;;0.07;50.31;100094.31;4972628;28;99445;-72
2022/02/14 05:07:04;;;;;;;1999.90;999.90;;;;;;;0.06;50.42;100089.88;4978410;28;97150;-72
2022/02/14 05:09:31;;;;;;;1999.90;999.90;;;;;;;0.03;50.39;100087.13;4983274;28;96926;-71
2022/02/14 05:11:59;;;;;;;1999.90;999.90;;;;;;;0.03;50.52;100081.88;4964031;28;99746;-70
2022/02/14 05:14:28;;;;;;;1999.90;999.90;;;;;;;0.02;50.47;100087.03;4980185;28;98690;-72
2022/02/14 05:16:56;;;;;;;1999.90;999.90;;;;;;;-0.01;50.45;100085.16;4985760;28;96951;-72
2022/02/14 05:19:25;;;;;;;1999.90;999.90;;;;;;;-0.05;50.50;100083.22;4985008;28;98090;-72
2022/02/14 05:21:53;;;;;;;1999.90;999.90;;;;;;;-0.06;50.67;100084.03;4977442;28;99581;-72
2022/02/14 05:24:20;;;;;;;1999.90;999.90;;;;;;;-0.05;50.88;100084.94;4982452;28;97530;-72
2022/02/14 05:26:48;;;;;;;1999.90;999.90;;;;;;;-0.06;50.82;100086.66;4984549;28;96929;-71
2022/02/14 05:29:16;;;;;;;1999.90;999.90;;;;;;;-0.08;50.61;100083.06;4983252;28;99115;-71
2022/02/14 05:31:43;;;;;;;1999.90;999.90;;;;;;;-0.08;50.64;100089.97;4980655;28;98781;-71
2022/02/14 05:34:11;;;;;;;1999.90;999.90;;;;;;;-0.09;50.24;100076.03;4960050;28;99126;-71
2022/02/14 05:36:41;;;;;;;1999.90;999.90;;;;;;;-0.10;50.53;100089.03;4980362;28;98450;-71
2022/02/14 05:39:11;;;;;;;1999.90;999.90;;;;;;;-0.12;50.71;100081.09;4987148;28;97332;-72
2022/02/14 05:41:39;;;;;;;1999.90;999.90;;;;;;;-0.13;50.68;100073.16;4985468;28;100737;-72
2022/02/14 05:44:07;;;;;;;1999.90;999.90;;;;;;;-0.13;50.63;100078.41;4983415;28;99207;-69
2022/02/14 05:46:34;;;;;;;1999.90;999.90;;;;;;;-0.14;50.55;100074.91;4977638;28;99445;-70
2022/02/14 05:49:02;;;;;;;1999.90;999.90;;;;;;;-0.13;50.54;100075.78;4994710;28;96830;-72
2022/02/14 05:51:30;;;;;;;1999.90;999.90;;;;;;;-0.13;50.64;100068.84;4983958;28;99996;-71
2022/02/14 05:53:59;;;;;;;1999.90;999.90;;;;;;;-0.14;50.54;100076.63;4984026;28;98843;-71
2022/02/14 05:56:26;;;;;;;1999.90;999.90;;;;;;;-0.15;50.74;100072.19;4986948;28;96978;-71
2022/02/14 05:58:54;;;;;;;1999.90;999.90;;;;;;;-0.16;50.66;100070.41;4980628;28;97192;-72
2022/02/14 06:01:22;;;;;;;1999.90;999.90;;;;;;;-0.17;50.69;100064.28;4983033;28;99721;-70
2022/02/14 06:03:49;;;;;;;1999.90;999.90;;;;;;;-0.17;50.77;100060.75;4980012;28;96857;-70
2022/02/14 06:06:19;;;;;;;1999.90;999.90;;;;;;;-0.18;50.68;100062.50;4981781;28;97527;-71
2022/02/14 06:08:47;;;;;;;1999.90;999.90;;;;;;;-0.17;50.61;100065.97;4980573;28;98044;-71
2022/02/14 06:11:16;;;;;;;1999.90;999.90;;;;;;;-0.18;50.73;100057.25;4976050;28;100168;-71
2022/02/14 06:13:44;;;;;;;1999.90;999.90;;;;;;;-0.19;50.83;100059.81;4979660;28;98587;-71
2022/02/14 06:16:11;;;;;;;1999.90;999.90;;;;;;;-0.18;50.69;100067.72;4981748;28;99250;-68
2022/02/14 06:18:39;;;;;;;1999.90;999.90;;;;;;;-0.17;50.65;100064.28;4977467;28;97387;-71
2022/02/14 06:21:07;;;;;;;1999.90;999.90;;;;;;;-0.18;50.63;100065.09;4983151;28;100414;-70
2022/02/14 06:23:35;;;;;;;1999.90;999.90;;;;;;;-0.18;50.69;100052.03;4985326;28;99121;-70
2022/02/14 06:26:03;;;;;;;1999.90;999.90;;;;;;;-0.18;50.36;100056.34;4980806;28;97072;-71
2022/02/14 06:28:37;;;;;;;1999.90;999.90;;;;;;;-0.19;50.90;100046.72;4979571;28;96814;-71
2022/02/14 06:31:06;;;;;;;1999.90;999.90;;;;;;;-0.18;50.88;100054.66;4978161;28;98792;-73
2022/02/14 06:33:34;;;;;;;1999.90;999.90;;;;;;;-0.18;50.78;100057.25;4979345;28;99551;-73
2022/02/14 06:36:02;;;;;;;1999.90;999.90;;;;;;;-0.19;50.60;100054.56;4978777;28;97190;-71
2022/02/14 06:38:29;;;;;;;1999.90;999.90;;;;;;;-0.21;50.56;100051.84;4985434;28;97236;-72
2022/02/14 06:40:57;;;;;;;1999.90;999.90;;;;;;;-0.23;50.61;100057.84;4981500;28;98897;-71
2022/02/14 06:43:25;;;;;;;1999.90;999.90;;;;;;;-0.24;50.89;100054.31;4981226;28;96821;-75
2022/02/14 06:45:54;;;;;;;1999.90;999.90;;;;;;;-0.23;50.76;100058.72;4984618;28;98306;-72
2022/02/14 06:48:21;;;;;;;1999.90;999.90;;;;;;;-0.23;50.57;100056.09;4979754;28;96808;-73
2022/02/14 06:50:49;;;;;;;1999.90;999.90;;;;;;;-0.23;50.53;100050.88;4977830;28;98747;-74
2022/02/14 06:53:16;;;;;;;1999.90;999.90;;;;;;;-0.23;50.65;100053.47;4981064;28;99296;-71
2022/02/14 06:55:44;;;;;;;1999.90;999.90;;;;;;;-0.23;50.54;100053.47;4976103;28;97579;-72
2022/02/14 06:58:12;;;;;;;1999.90;999.90;;;;;;;-0.22;50.72;100049.16;4981438;28;97126;-71
2022/02/14 07:00:40;;;;;;;1999.90;999.90;;;;;;;-0.20;50.70;100053.66;4977756;28;99105;-70
2022/02/14 07:03:10;;;;;;;1999.90;999.90;;;;;;;-0.20;50.50;100047.53;4981813;28;99346;-71
2022/02/14 07:05:40;;;;;;;1999.90;999.90;;;;;;;-0.19;50.58;100050.22;4975370;28;96900;-74
2022/02/14 07:08:08;;;;;;;1999.90;999.90;;;;;;;-0.17;50.70;100047.69;4974393;28;97289;-71
2022/02/14 07:10:36;;;;;;;1999.90;999.90;;;;;;;-0.14;50.66;100046.16;4980401;28;97559;-73
2022/02/14 07:13:04;;;;;;;1999.90;999.90;;;;;;;-0.10;50.48;100044.59;4983355;28;98498;-72
2022/02/14 07:15:32;;;;;;;1999.90;999.90;;;;;;;-0.08;50.53;100042.91;4979163;28;97018;-74
2022/02/14 07:18:01;;;;;;;1999.90;999.90;;;;;;;-0.06;50.55;100044.81;4975838;28;97681;-69
2022/02/14 07:20:31;;;;;;;1999.90;999.90;;;;;;;-0.04;50.43;100048.41;4978132;28;100797;-70
2022/02/14 07:22:59;;;;;;;1999.90;999.90;;;;;;;0.01;50.30;100043.44;4976903;28;97568;-71
2022/02/14 07:25:26;;;;;;;1999.90;999.90;;;;;;;0.05;50.39;100046.25;4973215;28;97252;-72
2022/02/14 07:27:54;;;;;;;1999.90;999.90;;;;;;;0.08;50.43;100035.06;4970375;28;97210;-71
2022/02/14 07:30:22;;;;;;;1999.90;999.90;;;;;;;0.16;49.93;100033.72;4968262;28;99592;-71
2022/02/14 07:32:50;;;;;;;1999.90;999.90;;;;;;;0.18;50.17;100027.75;4982160;28;98825;-72
2022/02/14 07:35:18;;;;;;;1999.90;999.90;;;;;;;0.23;50.20;100022.72;4973273;28;97815;-71
2022/02/14 07:37:47;;;;;;;1999.90;999.90;;;;;;;0.28;50.18;100017.78;4966590;28;96785;-71
2022/02/14 07:40:17;;;;;;;1999.90;999.90;;;;;;;0.31;49.94;100017.91;4974671;28;97610;-68
2022/02/14 07:42:50;;;;;;;1999.90;999.90;;;;;;;0.33;50.01;100013.66;4975541;28;99196;-72
2022/02/14 07:45:17;;;;;;;1999.90;999.90;;;;;;;0.34;49.58;100015.47;4973271;28;99327;-71
2022/02/14 07:47:45;;;;;;;1999.90;999.90;;;;;;;0.38;49.46;100012.16;4989514;28;99161;-71
2022/02/14 07:50:13;;;;;;;1999.90;999.90;;;;;;;0.42;49.48;100019.34;4978961;28;97713;-73
2022/02/14 07:52:41;;;;;;;1999.90;999.90;;;;;;;0.45;49.63;100006.44;4974524;28;97866;-73
2022/02/14 07:55:10;;;;;;;1999.90;999.90;;;;;;;0.47;49.40;100015.22;4976560;28;96759;-72
2022/02/14 07:57:38;;;;;;;1999.90;999.90;;;;;;;0.51;49.41;100022.41;4982875;28;99497;-69
2022/02/14 08:00:07;;;;;;;1999.90;999.90;;;;;;;0.56;49.55;100015.72;4975118;28;99063;-70
2022/02/14 08:02:41;;;;;;;1999.90;999.90;;;;;;;0.62;49.82;100015.97;4999765;22;98536;-69
2022/02/14 08:05:10;;;;;;;1999.90;999.90;;;;;;;0.65;49.28;100014.41;4975042;28;96781;-70
2022/02/14 08:07:39;;;;;;;1999.90;999.90;;;;;;;0.71;49.39;100013.81;4979538;28;98143;-70
2022/02/14 08:10:27;;;;;;;1999.90;999.90;;;;;;;0.76;49.41;100020.16;4983099;28;99458;-70
2022/02/14 08:12:55;;;;;;;1999.90;999.90;;;;;;;0.81;49.10;100013.44;4982200;28;97604;-69
2022/02/14 08:15:23;;;;;;;1999.90;999.90;;;;;;;0.87;49.13;100016.31;4961418;28;96867;-69
2022/02/14 08:17:51;;;;;;;1999.90;999.90;;;;;;;0.91;49.08;100013.03;4976271;28;97684;-69
2022/02/14 08:20:18;;;;;;;1999.90;999.90;;;;;;;0.96;49.18;100015.03;4979670;28;97247;-70
2022/02/14 08:22:46;;;;;;;1999.90;999.90;;;;;;;1.02;49.27;100004.84;4981089;28;97892;-71
2022/02/14 08:25:14;;;;;;;1999.90;999.90;;;;;;;1.07;49.26;100002.44;4980255;28;97260;-71
2022/02/14 08:27:45;;;;;;;1999.90;999.90;;;;;;;1.11;48.88;100005.28;4977430;28;97462;-69
2022/02/14 08:30:13;;;;;;;1999.90;999.90;;;;;;;1.16;48.98;99998.53;4984880;28;98756;-71
2022/02/14 08:32:41;;;;;;;1999.90;999.90;;;;;;;1.21;49.19;100006.59;4985691;28;97411;-69
2022/02/14 08:35:10;;;;;;;1999.90;999.90;;;;;;;1.25;48.49;100005.03;4977855;28;96921;-69
2022/02/14 08:37:37;;;;;;;1999.90;999.90;;;;;;;1.29;48.86;100004.34;4982329;28;96856;-68
2022/02/14 08:40:06;;;;;;;1999.90;999.90;;;;;;;1.34;48.24;100002.81;4985384;28;97791;-71
2022/02/14 08:42:34;;;;;;;1999.90;999.90;;;;;;;1.37;48.64;99997.69;4982622;28;99288;-71
2022/02/14 08:45:04;;;;;;;1999.90;999.90;;;;;;;1.40;48.75;99993.50;4982060;28;96981;-69
2022/02/14 08:47:31;;;;;;;1999.90;999.90;;;;;;;1.43;48.71;99993.66;4979819;28;97239;-72
2022/02/14 08:50:03;;;;;;;1999.90;999.90;;;;;;;1.47;48.63;99999.94;4979576;28;99942;-69
2022/02/14 08:52:31;;;;;;;1999.90;999.90;;;;;;;1.50;48.25;100015.78;4981805;28;98819;-70
2022/02/14 08:54:59;;;;;;;1999.90;999.90;;;;;;;1.54;47.87;100018.63;4979427;28;96860;-69
2022/02/14 08:57:28;;;;;;;1999.90;999.90;;;;;;;1.57;47.65;100013.50;4983250;28;96929;-69
2022/02/14 08:59:56;;;;;;;1999.90;999.90;;;;;;;1.61;48.04;100010.19;4979901;28;97743;-70
2022/02/14 09:02:25;;;;;;;1999.90;999.90;;;;;;;1.64;48.15;99998.94;4978602;28;97839;-72
2022/02/14 09:04:53;;;;;;;1999.90;999.90;;;;;;;1.68;48.26;100007.00;4980828;28;96883;-70
2022/02/14 09:07:20;;;;;;;1999.90;999.90;;;;;;;1.71;47.72;99998.34;4979770;28;97706;-71
2022/02/14 09:09:48;;;;;;;1999.90;999.90;;;;;;;1.75;47.87;99995.97;4990529;28;99910;-68
2022/02/14 09:12:17;;;;;;;1999.90;999.90;;;;;;;1.79;47.59;99995.25;4981511;28;99128;-68
2022/02/14 09:14:45;;;;;;;1999.90;999.90;;;;;;;1.83;48.05;99991.94;4982216;28;96848;-67
2022/02/14 09:17:12;;;;;;;1999.90;999.90;;;;;;;1.87;47.97;99993.84;4975529;28;98232;-67
2022/02/14 09:19:42;;;;;;;1999.90;999.90;;;;;;;1.94;48.00;99992.41;4969977;28;99351;-67
2022/02/14 09:22:10;;;;;;;1999.90;999.90;;;;;;;1.99;47.54;99999.66;4979243;28;97975;-68
2022/02/14 09:24:38;;;;;;;1999.90;999.90;;;;;;;2.05;47.97;99989.38;4980812;28;96826;-67
2022/02/14 09:27:06;;;;;;;1999.90;999.90;;;;;;;2.10;47.75;99993.16;4979913;28;97011;-67
2022/02/14 09:29:34;;;;;;;1999.90;999.90;;;;;;;2.16;47.51;99987.28;4963046;28;98471;-70
2022/02/14 09:32:01;;;;;;;1999.90;999.90;;;;;;;2.22;47.66;99991.88;4979855;28;97675;-68
2022/02/14 09:34:31;;;;;;;1999.90;999.90;;;;;;;2.26;47.20;99989.44;4982101;28;98530;-70
2022/02/14 09:37:00;;;;;;;1999.90;999.90;;;;;;;2.33;47.12;99994.09;4979240;28;98066;-70
2022/02/14 09:39:30;;;;;;;1999.90;999.90;;;;;;;2.39;46.92;99985.56;4977621;28;98855;-69
2022/02/14 09:41:59;;;;;;;1999.90;999.90;;;;;;;2.45;47.21;99980.59;4979090;28;98710;-70
2022/02/14 09:44:28;;;;;;;1999.90;999.90;;;;;;;2.49;46.65;99985.13;4980013;28;97528;-69
2022/02/14 09:46:55;;;;;;;1999.90;999.90;;;;;;;2.54;47.40;99973.06;4980502;28;97802;-69
2022/02/14 09:49:23;;;;;;;1999.90;999.90;;;;;;;2.60;46.66;99981.22;4979659;28;97764;-70
2022/02/14 09:51:53;;;;;;;1999.90;999.90;;;;;;;2.64;47.11;99965.63;4978267;28;97914;-70
2022/02/14 09:54:22;;;;;;;1999.90;999.90;;;;;;;2.97;45.38;99968.66;4979621;28;97075;-70
2022/02/14 09:56:50;;;;;;;1999.90;999.90;;;;;;;3.14;44.99;99970.22;4977572;28;97596;-70
2022/02/14 09:59:19;;;;;;;1999.90;999.90;;;;;;;3.31;44.35;99968.22;4978061;28;97718;-68
2022/02/14 10:01:47;;;;;;;1999.90;999.90;;;;;;;3.46;44.05;99966.16;4979878;28;99728;-68
2022/02/14 10:04:14;;;;;;;1999.90;999.90;;;;;;;3.60;43.86;99970.16;4980567;28;97281;-69
2022/02/14 10:06:43;;;;;;;1999.90;999.90;;;;;;;3.74;42.99;99974.19;4981577;28;98622;-69
2022/02/14 10:09:13;;;;;;;1999.90;999.90;;;;;;;3.85;42.94;99971.13;4998035;28;97628;-69
2022/02/14 10:14:36;;;;;;;1999.90;999.90;;;;;;;4.09;42.60;99973.69;5062927;27;96730;-70
2022/02/14 10:17:07;;;;;;;1999.90;999.90;;;;;;;3.92;43.40;99970.50;5059792;27;97108;-70
2022/02/14 10:19:39;;;;;;;1999.90;999.90;;;;;;;3.90;43.65;99966.91;5059276;27;96809;-70
2022/02/14 10:22:07;;;;;;;1999.90;999.90;;;;;;;3.90;43.96;99972.16;5058584;27;97563;-70
2022/02/14 10:24:39;;;;;;;1999.90;999.90;;;;;;;4.15;43.20;99963.38;5057736;27;100310;-70
2022/02/14 10:27:08;;;;;;;1999.90;999.90;;;;;;;4.03;43.55;99965.59;5060353;27;97402;-69
2022/02/14 10:29:37;;;;;;;1999.90;999.90;;;;;;;3.98;43.93;99981.25;5059408;27;99004;-69
2022/02/14 10:32:08;;;;;;;1999.90;999.90;;;;;;;3.95;43.89;99975.84;5057745;27;97834;-70
2022/02/14 10:34:38;;;;;;;1999.90;999.90;;;;;;;4.19;43.22;99958.25;5055034;27;97697;-70
2022/02/14 10:37:10;;;;;;;1999.90;999.90;;;;;;;4.05;43.78;99961.28;5056922;27;98462;-70
2022/02/14 10:39:38;;;;;;;1999.90;999.90;;;;;;;4.31;43.11;99972.69;5057059;27;97742;-70
2022/02/14 10:42:08;;;;;;;1999.90;999.90;;;;;;;4.44;42.75;99973.16;5057511;27;97550;-70
2022/02/14 10:47:29;;;;;;;1999.90;999.90;;;;;;;4.40;43.28;99965.06;5053591;27;97547;-70
2022/02/14 10:49:59;;;;;;;1999.90;999.90;;;;;;;4.38;43.58;99956.22;5052962;27;97781;-74
2022/02/14 10:52:33;;;;;;;1999.90;999.90;;;;;;;4.63;42.85;99957.06;5059074;27;99145;-70
2022/02/14 10:55:04;;;;;;;1999.90;999.90;;;;;;;4.76;42.80;99955.69;5057658;27;97777;-70
2022/02/14 10:57:34;;;;;;;1999.90;999.90;;;;;;;4.64;43.33;99963.25;5059640;27;96913;-71
2022/02/14 11:00:08;;;;;;;1999.90;999.90;;;;;;;4.90;42.52;99957.03;5056057;27;98163;-70
2022/02/14 11:02:36;;;;;;;1999.90;999.90;;;;;;;5.05;42.50;99952.25;5043362;27;98306;-71
2022/02/14 11:05:05;;;;;;;1999.90;999.90;;;;;;;5.17;41.86;99950.00;5057381;27;97966;-70
2022/02/14 11:07:33;;;;;;;1999.90;999.90;;;;;;;5.30;42.03;99957.41;5056982;27;97599;-71